sensor_id;sensor_type;location;lat;lon;timestamp;temperature;humidity
25825;DHT22;13658;44.534;18.694;2023-02-26T00:01:16;4.90;99.90
25825;DHT22;13658;44.534;18.694;2023-02-26T00:03:42;4.90;99.90
25825;DHT22;13658;44.534;18.694;2023-02-26T00:06:08;4.50;99.90
25825;DHT22;13658;44.534;18.694;2023-02-26T00:08:34;5.60;99.90
25825;DHT22;13658;44.534;18.694;2023-02-26T00:11:00;5.60;99.90
25825;DHT22;13658;44.534;18.694;2023-02-26T00:13:27;5.00;99.90
25825;DHT22;13658;44.534;18.694;2023-02-26T00:15:59;4.50;99.90
25825;DHT22;13658;44.534;18.694;2023-02-26T00:18:26;5.10;99.90
25825;DHT22;13658;44.534;18.694;2023-02-26T00:20:53;4.70;99.90
25825;DHT22;13658;44.534;18.694;2023-02-26T00:23:19;4.50;99.90
25825;DHT22;13658;44.534;18.694;2023-02-26T00:25:46;5.50;99.90
25825;DHT22;13658;44.534;18.694;2023-02-26T00:28:12;5.50;99.90
25825;DHT22;13658;44.534;18.694;2023-02-26T00:30:39;5.40;99.90
25825;DHT22;13658;44.534;18.694;2023-02-26T00:33:06;5.00;99.90
25825;DHT22;13658;44.534;18.694;2023-02-26T00:35:33;5.10;99.90
25825;DHT22;13658;44.534;18.694;2023-02-26T00:38:11;4.30;99.90
25825;DHT22;13658;44.534;18.694;2023-02-26T00:43:17;5.20;99.90
25825;DHT22;13658;44.534;18.694;2023-02-26T00:46:48;5.20;99.90
25825;DHT22;13658;44.534;18.694;2023-02-26T00:49:32;4.30;99.90
25825;DHT22;13658;44.534;18.694;2023-02-26T00:52:12;4.30;99.90
25825;DHT22;13658;44.534;18.694;2023-02-26T00:54:39;5.30;99.90
25825;DHT22;13658;44.534;18.694;2023-02-26T00:57:05;5.30;99.90
25825;DHT22;13658;44.534;18.694;2023-02-26T00:59:31;4.40;99.90
25825;DHT22;13658;44.534;18.694;2023-02-26T01:01:57;4.20;99.90
25825;DHT22;13658;44.534;18.694;2023-02-26T01:04:24;4.70;99.90
25825;DHT22;13658;44.534;18.694;2023-02-26T01:06:52;5.00;99.90
25825;DHT22;13658;44.534;18.694;2023-02-26T01:11:48;4.40;99.90
25825;DHT22;13658;44.534;18.694;2023-02-26T01:14:15;5.20;99.90
25825;DHT22;13658;44.534;18.694;2023-02-26T01:19:42;5.40;99.90
25825;DHT22;13658;44.534;18.694;2023-02-26T01:23:07;5.50;99.90
25825;DHT22;13658;44.534;18.694;2023-02-26T01:25:24;5.20;99.90
25825;DHT22;13658;44.534;18.694;2023-02-26T01:27:52;5.30;99.90
25825;DHT22;13658;44.534;18.694;2023-02-26T01:30:19;4.10;99.90
25825;DHT22;13658;44.534;18.694;2023-02-26T01:35:40;5.20;99.90
25825;DHT22;13658;44.534;18.694;2023-02-26T01:49:14;4.60;99.90
25825;DHT22;13658;44.534;18.694;2023-02-26T01:54:13;4.00;99.90
25825;DHT22;13658;44.534;18.694;2023-02-26T01:56:40;5.10;99.90
25825;DHT22;13658;44.534;18.694;2023-02-26T01:59:08;4.10;99.90
25825;DHT22;13658;44.534;18.694;2023-02-26T02:01:38;4.40;99.90
25825;DHT22;13658;44.534;18.694;2023-02-26T02:04:09;4.60;99.90
25825;DHT22;13658;44.534;18.694;2023-02-26T02:06:37;4.70;99.90
25825;DHT22;13658;44.534;18.694;2023-02-26T02:09:07;3.80;99.90
25825;DHT22;13658;44.534;18.694;2023-02-26T02:11:36;4.70;99.90
25825;DHT22;13658;44.534;18.694;2023-02-26T02:22:32;4.40;99.90
25825;DHT22;13658;44.534;18.694;2023-02-26T02:33:19;4.60;99.90
25825;DHT22;13658;44.534;18.694;2023-02-26T02:35:53;3.60;99.90
25825;DHT22;13658;44.534;18.694;2023-02-26T02:38:31;3.80;99.90
25825;DHT22;13658;44.534;18.694;2023-02-26T02:41:07;3.50;99.90
25825;DHT22;13658;44.534;18.694;2023-02-26T02:43:37;3.70;99.90
25825;DHT22;13658;44.534;18.694;2023-02-26T02:46:10;4.40;99.90
25825;DHT22;13658;44.534;18.694;2023-02-26T02:51:12;3.30;99.90
25825;DHT22;13658;44.534;18.694;2023-02-26T02:53:50;4.20;99.90
25825;DHT22;13658;44.534;18.694;2023-02-26T02:59:27;4.10;99.90
25825;DHT22;13658;44.534;18.694;2023-02-26T03:02:30;3.30;99.90
25825;DHT22;13658;44.534;18.694;2023-02-26T03:04:58;3.70;99.90
25825;DHT22;13658;44.534;18.694;2023-02-26T03:07:24;3.90;99.90
25825;DHT22;13658;44.534;18.694;2023-02-26T03:09:51;4.40;99.90
25825;DHT22;13658;44.534;18.694;2023-02-26T03:12:17;3.20;99.90
25825;DHT22;13658;44.534;18.694;2023-02-26T03:14:44;3.50;99.90
25825;DHT22;13658;44.534;18.694;2023-02-26T03:17:31;4.10;99.90
25825;DHT22;13658;44.534;18.694;2023-02-26T03:20:15;3.70;99.90
25825;DHT22;13658;44.534;18.694;2023-02-26T03:25:48;3.10;99.90
25825;DHT22;13658;44.534;18.694;2023-02-26T03:28:24;3.30;99.90
25825;DHT22;13658;44.534;18.694;2023-02-26T03:39:12;3.70;99.90
25825;DHT22;13658;44.534;18.694;2023-02-26T03:42:10;3.20;99.90
25825;DHT22;13658;44.534;18.694;2023-02-26T03:47:24;3.80;99.90
25825;DHT22;13658;44.534;18.694;2023-02-26T03:50:05;3.70;99.90
25825;DHT22;13658;44.534;18.694;2023-02-26T03:52:44;2.80;99.90
25825;DHT22;13658;44.534;18.694;2023-02-26T03:55:51;3.60;99.90
25825;DHT22;13658;44.534;18.694;2023-02-26T03:58:37;3.70;99.90
25825;DHT22;13658;44.534;18.694;2023-02-26T04:02:02;3.60;99.90
25825;DHT22;13658;44.534;18.694;2023-02-26T04:04:52;2.90;99.90
25825;DHT22;13658;44.534;18.694;2023-02-26T04:07:20;3.60;99.90
25825;DHT22;13658;44.534;18.694;2023-02-26T04:09:49;2.60;99.90
25825;DHT22;13658;44.534;18.694;2023-02-26T04:12:24;3.50;99.90
25825;DHT22;13658;44.534;18.694;2023-02-26T04:14:54;2.70;99.90
25825;DHT22;13658;44.534;18.694;2023-02-26T04:17:21;3.70;99.90
25825;DHT22;13658;44.534;18.694;2023-02-26T04:19:47;2.60;99.90
25825;DHT22;13658;44.534;18.694;2023-02-26T04:22:13;3.70;99.90
25825;DHT22;13658;44.534;18.694;2023-02-26T04:24:40;3.30;99.90
25825;DHT22;13658;44.534;18.694;2023-02-26T04:27:06;3.70;99.90
25825;DHT22;13658;44.534;18.694;2023-02-26T04:29:38;2.80;99.90
25825;DHT22;13658;44.534;18.694;2023-02-26T04:32:05;3.20;99.90
25825;DHT22;13658;44.534;18.694;2023-02-26T04:34:31;2.90;99.90
25825;DHT22;13658;44.534;18.694;2023-02-26T04:36:58;2.50;99.90
25825;DHT22;13658;44.534;18.694;2023-02-26T04:39:24;3.10;99.90
25825;DHT22;13658;44.534;18.694;2023-02-26T04:41:50;2.50;99.90
25825;DHT22;13658;44.534;18.694;2023-02-26T04:44:16;3.30;99.90
25825;DHT22;13658;44.534;18.694;2023-02-26T04:46:42;2.50;99.90
25825;DHT22;13658;44.534;18.694;2023-02-26T04:49:09;3.20;99.90
25825;DHT22;13658;44.534;18.694;2023-02-26T04:51:35;2.90;99.90
25825;DHT22;13658;44.534;18.694;2023-02-26T04:54:01;3.00;99.90
25825;DHT22;13658;44.534;18.694;2023-02-26T04:56:28;3.10;99.90
25825;DHT22;13658;44.534;18.694;2023-02-26T04:58:53;3.40;99.90
25825;DHT22;13658;44.534;18.694;2023-02-26T05:01:25;2.40;99.90
25825;DHT22;13658;44.534;18.694;2023-02-26T05:03:51;3.00;99.90
25825;DHT22;13658;44.534;18.694;2023-02-26T05:06:17;2.50;99.90
25825;DHT22;13658;44.534;18.694;2023-02-26T05:08:43;2.40;99.90
25825;DHT22;13658;44.534;18.694;2023-02-26T05:11:10;2.70;99.90
25825;DHT22;13658;44.534;18.694;2023-02-26T05:13:36;2.50;99.90
25825;DHT22;13658;44.534;18.694;2023-02-26T05:16:02;3.50;99.90
25825;DHT22;13658;44.534;18.694;2023-02-26T05:18:28;2.60;99.90
25825;DHT22;13658;44.534;18.694;2023-02-26T05:20:55;2.90;99.90
25825;DHT22;13658;44.534;18.694;2023-02-26T05:23:21;3.50;99.90
25825;DHT22;13658;44.534;18.694;2023-02-26T05:25:47;3.20;99.90
25825;DHT22;13658;44.534;18.694;2023-02-26T05:28:15;3.40;99.90
25825;DHT22;13658;44.534;18.694;2023-02-26T05:30:41;2.60;99.90
25825;DHT22;13658;44.534;18.694;2023-02-26T05:33:07;3.00;99.90
25825;DHT22;13658;44.534;18.694;2023-02-26T05:35:33;2.90;99.90
25825;DHT22;13658;44.534;18.694;2023-02-26T05:37:59;2.50;99.90
25825;DHT22;13658;44.534;18.694;2023-02-26T05:40:25;2.80;99.90
25825;DHT22;13658;44.534;18.694;2023-02-26T05:42:51;2.70;99.90
25825;DHT22;13658;44.534;18.694;2023-02-26T05:45:17;3.50;99.90
25825;DHT22;13658;44.534;18.694;2023-02-26T05:47:43;3.50;99.90
25825;DHT22;13658;44.534;18.694;2023-02-26T05:50:10;2.60;99.90
25825;DHT22;13658;44.534;18.694;2023-02-26T05:52:36;2.70;99.90
25825;DHT22;13658;44.534;18.694;2023-02-26T05:55:02;2.70;99.90
25825;DHT22;13658;44.534;18.694;2023-02-26T05:57:28;3.30;99.90
25825;DHT22;13658;44.534;18.694;2023-02-26T05:59:54;3.30;99.90
25825;DHT22;13658;44.534;18.694;2023-02-26T06:02:20;2.60;99.90
25825;DHT22;13658;44.534;18.694;2023-02-26T06:04:46;3.50;99.90
25825;DHT22;13658;44.534;18.694;2023-02-26T06:07:12;2.80;99.90
25825;DHT22;13658;44.534;18.694;2023-02-26T06:09:38;2.70;99.90
25825;DHT22;13658;44.534;18.694;2023-02-26T06:12:05;3.50;99.90
25825;DHT22;13658;44.534;18.694;2023-02-26T06:14:32;3.60;99.90
25825;DHT22;13658;44.534;18.694;2023-02-26T06:16:58;3.60;99.90
25825;DHT22;13658;44.534;18.694;2023-02-26T06:19:24;3.20;99.90
25825;DHT22;13658;44.534;18.694;2023-02-26T06:21:50;2.50;99.90
25825;DHT22;13658;44.534;18.694;2023-02-26T06:24:16;2.50;99.90
25825;DHT22;13658;44.534;18.694;2023-02-26T06:26:42;3.30;99.90
25825;DHT22;13658;44.534;18.694;2023-02-26T06:29:08;2.60;99.90
25825;DHT22;13658;44.534;18.694;2023-02-26T06:31:34;2.90;99.90
25825;DHT22;13658;44.534;18.694;2023-02-26T06:34:01;2.50;99.90
25825;DHT22;13658;44.534;18.694;2023-02-26T06:36:27;3.00;99.90
25825;DHT22;13658;44.534;18.694;2023-02-26T06:38:52;2.70;99.90
25825;DHT22;13658;44.534;18.694;2023-02-26T06:41:18;3.00;99.90
25825;DHT22;13658;44.534;18.694;2023-02-26T06:43:44;3.10;99.90
25825;DHT22;13658;44.534;18.694;2023-02-26T06:46:10;2.70;99.90
25825;DHT22;13658;44.534;18.694;2023-02-26T06:48:36;2.60;99.90
25825;DHT22;13658;44.534;18.694;2023-02-26T06:51:02;3.40;99.90
25825;DHT22;13658;44.534;18.694;2023-02-26T06:53:28;3.60;99.90
25825;DHT22;13658;44.534;18.694;2023-02-26T06:55:54;2.50;99.90
25825;DHT22;13658;44.534;18.694;2023-02-26T06:58:21;3.10;99.90
25825;DHT22;13658;44.534;18.694;2023-02-26T07:00:49;2.90;99.90
25825;DHT22;13658;44.534;18.694;2023-02-26T07:03:16;3.40;99.90
25825;DHT22;13658;44.534;18.694;2023-02-26T07:05:44;3.90;99.90
25825;DHT22;13658;44.534;18.694;2023-02-26T07:08:10;3.20;99.90
25825;DHT22;13658;44.534;18.694;2023-02-26T07:10:36;3.30;99.90
25825;DHT22;13658;44.534;18.694;2023-02-26T07:13:03;4.00;99.90
25825;DHT22;13658;44.534;18.694;2023-02-26T07:15:29;3.90;99.90
25825;DHT22;13658;44.534;18.694;2023-02-26T07:17:55;3.60;99.90
25825;DHT22;13658;44.534;18.694;2023-02-26T07:20:21;3.80;99.90
25825;DHT22;13658;44.534;18.694;2023-02-26T07:22:47;3.20;99.90
25825;DHT22;13658;44.534;18.694;2023-02-26T07:25:14;3.70;99.90
25825;DHT22;13658;44.534;18.694;2023-02-26T07:27:40;3.50;99.90
25825;DHT22;13658;44.534;18.694;2023-02-26T07:30:07;3.70;99.90
25825;DHT22;13658;44.534;18.694;2023-02-26T07:32:33;3.20;99.90
25825;DHT22;13658;44.534;18.694;2023-02-26T07:34:59;3.90;99.90
25825;DHT22;13658;44.534;18.694;2023-02-26T07:37:25;3.70;99.90
25825;DHT22;13658;44.534;18.694;2023-02-26T07:39:51;4.10;99.90
25825;DHT22;13658;44.534;18.694;2023-02-26T07:42:17;3.30;99.90
25825;DHT22;13658;44.534;18.694;2023-02-26T07:44:43;3.30;99.90
25825;DHT22;13658;44.534;18.694;2023-02-26T07:47:10;3.40;99.90
25825;DHT22;13658;44.534;18.694;2023-02-26T07:49:36;3.60;99.90
25825;DHT22;13658;44.534;18.694;2023-02-26T07:52:02;3.10;99.90
25825;DHT22;13658;44.534;18.694;2023-02-26T07:54:28;3.10;99.90
25825;DHT22;13658;44.534;18.694;2023-02-26T07:56:55;3.20;99.90
25825;DHT22;13658;44.534;18.694;2023-02-26T07:59:21;4.00;99.90
25825;DHT22;13658;44.534;18.694;2023-02-26T08:01:47;3.80;99.90
25825;DHT22;13658;44.534;18.694;2023-02-26T08:04:13;3.40;99.90
25825;DHT22;13658;44.534;18.694;2023-02-26T08:06:39;3.50;99.90
25825;DHT22;13658;44.534;18.694;2023-02-26T08:09:05;3.40;99.90
25825;DHT22;13658;44.534;18.694;2023-02-26T08:11:31;3.10;99.90
25825;DHT22;13658;44.534;18.694;2023-02-26T08:14:05;3.20;99.90
25825;DHT22;13658;44.534;18.694;2023-02-26T08:16:31;3.30;99.90
25825;DHT22;13658;44.534;18.694;2023-02-26T08:18:57;3.70;99.90
25825;DHT22;13658;44.534;18.694;2023-02-26T08:21:23;4.20;99.90
25825;DHT22;13658;44.534;18.694;2023-02-26T08:23:49;4.20;99.90
25825;DHT22;13658;44.534;18.694;2023-02-26T08:26:17;4.30;99.90
25825;DHT22;13658;44.534;18.694;2023-02-26T08:28:43;4.20;99.90
25825;DHT22;13658;44.534;18.694;2023-02-26T08:31:11;4.40;99.90
25825;DHT22;13658;44.534;18.694;2023-02-26T08:33:39;4.30;99.90
25825;DHT22;13658;44.534;18.694;2023-02-26T08:36:05;4.50;99.90
25825;DHT22;13658;44.534;18.694;2023-02-26T08:38:32;4.50;99.90
25825;DHT22;13658;44.534;18.694;2023-02-26T08:40:58;3.80;99.90
25825;DHT22;13658;44.534;18.694;2023-02-26T08:43:24;4.50;99.90
25825;DHT22;13658;44.534;18.694;2023-02-26T08:45:54;4.70;99.90
25825;DHT22;13658;44.534;18.694;2023-02-26T08:48:20;4.80;99.90
25825;DHT22;13658;44.534;18.694;2023-02-26T08:50:47;4.30;99.90
25825;DHT22;13658;44.534;18.694;2023-02-26T08:53:13;4.20;99.90
25825;DHT22;13658;44.534;18.694;2023-02-26T08:55:39;4.40;99.90
25825;DHT22;13658;44.534;18.694;2023-02-26T08:58:05;4.20;99.90
25825;DHT22;13658;44.534;18.694;2023-02-26T09:00:32;4.70;99.90
25825;DHT22;13658;44.534;18.694;2023-02-26T09:02:59;4.50;99.90
25825;DHT22;13658;44.534;18.694;2023-02-26T09:05:25;5.00;99.90
25825;DHT22;13658;44.534;18.694;2023-02-26T09:07:51;4.30;99.90
25825;DHT22;13658;44.534;18.694;2023-02-26T09:10:17;4.50;99.90
25825;DHT22;13658;44.534;18.694;2023-02-26T09:12:43;4.30;99.90
25825;DHT22;13658;44.534;18.694;2023-02-26T09:15:10;4.20;99.90
25825;DHT22;13658;44.534;18.694;2023-02-26T09:17:36;5.00;99.90
25825;DHT22;13658;44.534;18.694;2023-02-26T09:20:03;4.30;99.90
25825;DHT22;13658;44.534;18.694;2023-02-26T09:22:29;4.30;99.90
25825;DHT22;13658;44.534;18.694;2023-02-26T09:24:55;4.40;99.90
25825;DHT22;13658;44.534;18.694;2023-02-26T09:27:21;4.40;99.90
25825;DHT22;13658;44.534;18.694;2023-02-26T09:29:47;4.70;99.90
25825;DHT22;13658;44.534;18.694;2023-02-26T09:32:13;4.50;99.90
25825;DHT22;13658;44.534;18.694;2023-02-26T09:34:39;5.40;99.90
25825;DHT22;13658;44.534;18.694;2023-02-26T09:37:07;4.60;99.90
25825;DHT22;13658;44.534;18.694;2023-02-26T09:39:33;5.40;99.90
25825;DHT22;13658;44.534;18.694;2023-02-26T09:44:37;4.80;99.90
25825;DHT22;13658;44.534;18.694;2023-02-26T09:52:22;5.30;99.90
25825;DHT22;13658;44.534;18.694;2023-02-26T09:55:02;5.90;99.90
25825;DHT22;13658;44.534;18.694;2023-02-26T09:57:33;6.10;99.90
25825;DHT22;13658;44.534;18.694;2023-02-26T10:00:00;6.00;99.90
25825;DHT22;13658;44.534;18.694;2023-02-26T10:02:49;6.20;99.90
25825;DHT22;13658;44.534;18.694;2023-02-26T10:05:25;5.80;99.90
25825;DHT22;13658;44.534;18.694;2023-02-26T10:07:58;5.60;99.90
25825;DHT22;13658;44.534;18.694;2023-02-26T10:10:35;5.90;99.90
25825;DHT22;13658;44.534;18.694;2023-02-26T10:13:03;6.10;99.90
25825;DHT22;13658;44.534;18.694;2023-02-26T10:15:39;5.60;99.90
25825;DHT22;13658;44.534;18.694;2023-02-26T10:18:35;5.80;99.90
25825;DHT22;13658;44.534;18.694;2023-02-26T10:21:07;5.60;99.90
25825;DHT22;13658;44.534;18.694;2023-02-26T10:23:40;6.20;99.90
25825;DHT22;13658;44.534;18.694;2023-02-26T10:26:12;5.60;99.90
25825;DHT22;13658;44.534;18.694;2023-02-26T10:31:31;5.80;99.90
25825;DHT22;13658;44.534;18.694;2023-02-26T10:34:05;5.80;99.90
25825;DHT22;13658;44.534;18.694;2023-02-26T10:36:54;5.50;99.90
25825;DHT22;13658;44.534;18.694;2023-02-26T10:39:32;5.50;99.90
25825;DHT22;13658;44.534;18.694;2023-02-26T10:42:05;5.60;99.90
25825;DHT22;13658;44.534;18.694;2023-02-26T10:50:25;5.80;99.90
25825;DHT22;13658;44.534;18.694;2023-02-26T10:52:53;5.10;99.90
25825;DHT22;13658;44.534;18.694;2023-02-26T10:58:15;5.10;99.90
25825;DHT22;13658;44.534;18.694;2023-02-26T11:00:45;4.90;99.90
25825;DHT22;13658;44.534;18.694;2023-02-26T11:03:29;5.00;99.90
25825;DHT22;13658;44.534;18.694;2023-02-26T11:05:56;5.40;99.90
25825;DHT22;13658;44.534;18.694;2023-02-26T11:08:27;5.60;99.90
25825;DHT22;13658;44.534;18.694;2023-02-26T11:11:02;5.70;99.90
25825;DHT22;13658;44.534;18.694;2023-02-26T11:13:31;5.10;99.90
25825;DHT22;13658;44.534;18.694;2023-02-26T11:16:01;5.10;99.90
25825;DHT22;13658;44.534;18.694;2023-02-26T11:18:38;5.70;99.90
25825;DHT22;13658;44.534;18.694;2023-02-26T11:21:05;5.60;99.90
25825;DHT22;13658;44.534;18.694;2023-02-26T11:23:32;6.10;99.90
25825;DHT22;13658;44.534;18.694;2023-02-26T11:26:04;6.20;99.90
25825;DHT22;13658;44.534;18.694;2023-02-26T11:28:36;6.30;99.90
25825;DHT22;13658;44.534;18.694;2023-02-26T11:31:08;6.00;99.90
25825;DHT22;13658;44.534;18.694;2023-02-26T11:33:38;6.50;99.90
25825;DHT22;13658;44.534;18.694;2023-02-26T11:36:16;6.10;99.90
25825;DHT22;13658;44.534;18.694;2023-02-26T11:38:56;6.70;99.90
25825;DHT22;13658;44.534;18.694;2023-02-26T11:41:23;6.60;99.90
25825;DHT22;13658;44.534;18.694;2023-02-26T11:44:02;6.60;99.90
25825;DHT22;13658;44.534;18.694;2023-02-26T11:46:30;6.60;99.90
25825;DHT22;13658;44.534;18.694;2023-02-26T11:48:58;6.50;99.90
25825;DHT22;13658;44.534;18.694;2023-02-26T11:51:27;6.40;99.90
25825;DHT22;13658;44.534;18.694;2023-02-26T11:53:56;6.40;99.90
25825;DHT22;13658;44.534;18.694;2023-02-26T11:56:36;6.30;99.90
25825;DHT22;13658;44.534;18.694;2023-02-26T11:59:23;6.30;99.90
25825;DHT22;13658;44.534;18.694;2023-02-26T12:01:51;6.40;99.90
25825;DHT22;13658;44.534;18.694;2023-02-26T12:04:20;6.20;99.90
25825;DHT22;13658;44.534;18.694;2023-02-26T12:06:50;6.00;99.90
25825;DHT22;13658;44.534;18.694;2023-02-26T12:09:17;6.00;99.90
25825;DHT22;13658;44.534;18.694;2023-02-26T12:12:07;6.00;99.90
25825;DHT22;13658;44.534;18.694;2023-02-26T12:20:19;6.00;99.90
25825;DHT22;13658;44.534;18.694;2023-02-26T12:58:29;5.40;99.90
25825;DHT22;13658;44.534;18.694;2023-02-26T13:03:59;5.60;99.90
25825;DHT22;13658;44.534;18.694;2023-02-26T13:09:31;5.60;99.90
25825;DHT22;13658;44.534;18.694;2023-02-26T13:17:40;5.40;99.90
25825;DHT22;13658;44.534;18.694;2023-02-26T13:20:15;5.30;99.90
25825;DHT22;13658;44.534;18.694;2023-02-26T13:23:07;5.40;99.90
25825;DHT22;13658;44.534;18.694;2023-02-26T13:26:27;5.40;99.90
25825;DHT22;13658;44.534;18.694;2023-02-26T13:33:50;5.30;99.90
25825;DHT22;13658;44.534;18.694;2023-02-26T13:36:18;5.30;99.90
25825;DHT22;13658;44.534;18.694;2023-02-26T13:42:12;5.20;99.90
25825;DHT22;13658;44.534;18.694;2023-02-26T13:50:43;5.40;99.90
25825;DHT22;13658;44.534;18.694;2023-02-26T13:55:53;5.50;99.90
25825;DHT22;13658;44.534;18.694;2023-02-26T14:01:07;5.50;99.90
25825;DHT22;13658;44.534;18.694;2023-02-26T14:19:31;5.30;99.90
25825;DHT22;13658;44.534;18.694;2023-02-26T14:24:43;5.20;99.90
25825;DHT22;13658;44.534;18.694;2023-02-26T14:29:40;5.10;99.90
25825;DHT22;13658;44.534;18.694;2023-02-26T14:34:50;5.10;99.90
25825;DHT22;13658;44.534;18.694;2023-02-26T14:37:20;5.00;99.90
25825;DHT22;13658;44.534;18.694;2023-02-26T14:40:09;4.90;99.90
25825;DHT22;13658;44.534;18.694;2023-02-26T14:42:53;4.80;99.90
25825;DHT22;13658;44.534;18.694;2023-02-26T14:45:34;4.60;99.90
25825;DHT22;13658;44.534;18.694;2023-02-26T14:48:04;4.70;99.90
25825;DHT22;13658;44.534;18.694;2023-02-26T14:57:07;4.50;99.90
25825;DHT22;13658;44.534;18.694;2023-02-26T15:00:11;4.40;99.90
25825;DHT22;13658;44.534;18.694;2023-02-26T15:05:42;4.30;99.90
25825;DHT22;13658;44.534;18.694;2023-02-26T15:08:23;4.20;99.90
25825;DHT22;13658;44.534;18.694;2023-02-26T15:19:04;4.00;99.90
25825;DHT22;13658;44.534;18.694;2023-02-26T15:24:43;3.90;99.90
25825;DHT22;13658;44.534;18.694;2023-02-26T15:27:15;3.90;99.90
25825;DHT22;13658;44.534;18.694;2023-02-26T15:29:42;3.80;99.90
25825;DHT22;13658;44.534;18.694;2023-02-26T15:32:29;3.80;99.90
25825;DHT22;13658;44.534;18.694;2023-02-26T15:35:15;3.80;99.90
25825;DHT22;13658;44.534;18.694;2023-02-26T15:37:41;3.80;99.90
25825;DHT22;13658;44.534;18.694;2023-02-26T15:40:08;3.70;99.90
25825;DHT22;13658;44.534;18.694;2023-02-26T15:42:37;3.70;99.90
25825;DHT22;13658;44.534;18.694;2023-02-26T15:45:12;3.60;99.90
25825;DHT22;13658;44.534;18.694;2023-02-26T15:47:40;3.60;99.90
25825;DHT22;13658;44.534;18.694;2023-02-26T15:50:06;3.60;99.90
25825;DHT22;13658;44.534;18.694;2023-02-26T15:52:32;3.60;99.90
25825;DHT22;13658;44.534;18.694;2023-02-26T15:55:03;3.70;99.90
25825;DHT22;13658;44.534;18.694;2023-02-26T15:57:30;3.60;99.90
25825;DHT22;13658;44.534;18.694;2023-02-26T16:00:08;3.60;99.90
25825;DHT22;13658;44.534;18.694;2023-02-26T16:02:41;3.60;99.90
25825;DHT22;13658;44.534;18.694;2023-02-26T16:05:09;3.60;99.90
25825;DHT22;13658;44.534;18.694;2023-02-26T16:07:37;3.50;99.90
25825;DHT22;13658;44.534;18.694;2023-02-26T16:12:50;3.30;99.90
25825;DHT22;13658;44.534;18.694;2023-02-26T16:15:30;3.30;99.90
25825;DHT22;13658;44.534;18.694;2023-02-26T16:17:59;3.30;99.90
25825;DHT22;13658;44.534;18.694;2023-02-26T16:20:28;3.30;99.90
25825;DHT22;13658;44.534;18.694;2023-02-26T16:23:02;3.30;99.90
25825;DHT22;13658;44.534;18.694;2023-02-26T16:28:46;3.20;99.90
25825;DHT22;13658;44.534;18.694;2023-02-26T16:31:22;3.20;99.90
25825;DHT22;13658;44.534;18.694;2023-02-26T16:37:33;3.10;99.90
25825;DHT22;13658;44.534;18.694;2023-02-26T16:48:11;3.10;99.90
25825;DHT22;13658;44.534;18.694;2023-02-26T16:50:38;3.10;99.90
25825;DHT22;13658;44.534;18.694;2023-02-26T16:53:07;3.00;99.90
25825;DHT22;13658;44.534;18.694;2023-02-26T16:55:36;3.00;99.90
25825;DHT22;13658;44.534;18.694;2023-02-26T16:58:04;2.90;99.90
25825;DHT22;13658;44.534;18.694;2023-02-26T17:00:33;2.90;99.90
25825;DHT22;13658;44.534;18.694;2023-02-26T17:03:17;3.00;99.90
25825;DHT22;13658;44.534;18.694;2023-02-26T17:08:19;2.90;99.90
25825;DHT22;13658;44.534;18.694;2023-02-26T17:11:45;2.90;99.90
25825;DHT22;13658;44.534;18.694;2023-02-26T17:16:49;3.00;99.90
25825;DHT22;13658;44.534;18.694;2023-02-26T17:19:16;2.90;99.90
25825;DHT22;13658;44.534;18.694;2023-02-26T17:21:48;2.90;99.90
25825;DHT22;13658;44.534;18.694;2023-02-26T17:24:20;3.00;99.90
25825;DHT22;13658;44.534;18.694;2023-02-26T17:26:47;2.90;99.90
25825;DHT22;13658;44.534;18.694;2023-02-26T17:29:31;2.90;99.90
25825;DHT22;13658;44.534;18.694;2023-02-26T17:31:58;2.90;99.90
25825;DHT22;13658;44.534;18.694;2023-02-26T17:34:24;2.90;99.90
25825;DHT22;13658;44.534;18.694;2023-02-26T17:36:51;2.90;99.90
25825;DHT22;13658;44.534;18.694;2023-02-26T17:39:17;2.90;99.90
25825;DHT22;13658;44.534;18.694;2023-02-26T17:41:44;2.90;99.90
25825;DHT22;13658;44.534;18.694;2023-02-26T17:44:10;2.90;99.90
25825;DHT22;13658;44.534;18.694;2023-02-26T17:46:36;2.90;99.90
25825;DHT22;13658;44.534;18.694;2023-02-26T17:49:03;2.80;99.90
25825;DHT22;13658;44.534;18.694;2023-02-26T17:51:31;2.90;99.90
25825;DHT22;13658;44.534;18.694;2023-02-26T17:54:12;2.80;99.90
25825;DHT22;13658;44.534;18.694;2023-02-26T17:56:38;2.80;99.90
25825;DHT22;13658;44.534;18.694;2023-02-26T17:59:07;2.80;99.90
25825;DHT22;13658;44.534;18.694;2023-02-26T18:01:34;2.70;99.90
25825;DHT22;13658;44.534;18.694;2023-02-26T18:04:00;2.80;99.90
25825;DHT22;13658;44.534;18.694;2023-02-26T18:06:27;2.80;99.90
25825;DHT22;13658;44.534;18.694;2023-02-26T18:08:55;2.70;99.90
25825;DHT22;13658;44.534;18.694;2023-02-26T18:11:21;2.70;99.90
25825;DHT22;13658;44.534;18.694;2023-02-26T18:13:50;2.70;99.90
25825;DHT22;13658;44.534;18.694;2023-02-26T18:16:20;2.70;99.90
25825;DHT22;13658;44.534;18.694;2023-02-26T18:18:47;2.70;99.90
25825;DHT22;13658;44.534;18.694;2023-02-26T18:21:13;2.80;99.90
25825;DHT22;13658;44.534;18.694;2023-02-26T18:23:39;2.80;99.90
25825;DHT22;13658;44.534;18.694;2023-02-26T18:26:06;2.70;99.90
25825;DHT22;13658;44.534;18.694;2023-02-26T18:28:32;2.70;99.90
25825;DHT22;13658;44.534;18.694;2023-02-26T18:30:57;2.70;99.90
25825;DHT22;13658;44.534;18.694;2023-02-26T18:33:39;2.70;99.90
25825;DHT22;13658;44.534;18.694;2023-02-26T18:36:06;2.70;99.90
25825;DHT22;13658;44.534;18.694;2023-02-26T18:38:32;2.60;99.90
25825;DHT22;13658;44.534;18.694;2023-02-26T18:40:59;2.60;99.90
25825;DHT22;13658;44.534;18.694;2023-02-26T18:43:27;2.60;99.90
25825;DHT22;13658;44.534;18.694;2023-02-26T18:45:53;2.70;99.90
25825;DHT22;13658;44.534;18.694;2023-02-26T18:48:20;2.70;99.90
25825;DHT22;13658;44.534;18.694;2023-02-26T18:50:47;2.60;99.90
25825;DHT22;13658;44.534;18.694;2023-02-26T18:53:13;2.60;99.90
25825;DHT22;13658;44.534;18.694;2023-02-26T18:55:42;2.60;99.90
25825;DHT22;13658;44.534;18.694;2023-02-26T18:58:08;2.60;99.90
25825;DHT22;13658;44.534;18.694;2023-02-26T19:00:34;2.60;99.90
25825;DHT22;13658;44.534;18.694;2023-02-26T19:03:00;2.60;99.90
25825;DHT22;13658;44.534;18.694;2023-02-26T19:05:25;2.60;99.90
25825;DHT22;13658;44.534;18.694;2023-02-26T19:07:52;2.60;99.90
25825;DHT22;13658;44.534;18.694;2023-02-26T19:10:19;2.50;99.90
25825;DHT22;13658;44.534;18.694;2023-02-26T19:12:45;2.60;99.90
25825;DHT22;13658;44.534;18.694;2023-02-26T19:15:12;2.60;99.90
25825;DHT22;13658;44.534;18.694;2023-02-26T19:17:39;2.60;99.90
25825;DHT22;13658;44.534;18.694;2023-02-26T19:20:06;2.70;99.90
25825;DHT22;13658;44.534;18.694;2023-02-26T19:22:32;2.60;99.90
25825;DHT22;13658;44.534;18.694;2023-02-26T19:24:58;2.70;99.90
25825;DHT22;13658;44.534;18.694;2023-02-26T19:27:25;2.60;99.90
25825;DHT22;13658;44.534;18.694;2023-02-26T19:29:50;2.60;99.90